Little River, North Carolina
Current Conditions -  °F | °C
As of 3:53 PM on Friday 19 Dec 2014 (Local Time) from KHKY Reporting Station
Clear Clear  
Wind Chill: 52°   Ceiling: Unl
Heat Index: 52°   Visibility: 10mi
Dew Point: 29°   Wind: 0mph
Humidity: 41%   Direction: NA
Pressure: 30.1"   Gusts: NA
Location:  35.9243°N, 81.216°W
Report Text: KHKY 192053Z AUTO 00000KT 10SM CLR 11/M02 A3010 RMK AO2 SLP186 T01111017 55003
Loading
Personal Weather Stations






























Interactive Weather Map New forecast layout! Learn more

10-Day Weather Forecast

Advertisements
Track Severe Weather on mobile